Barbarossa — ZDFA4 — position and weather

sailwx.info

Track history (hours):
 
Tides and Currents Weather Stations Pressure Air Temp Water Temp Dewpoint Dewpoint Depression Visibility Wind Speed Wind Dir Waves Ship Positions

Barbarossa

Last reported at 2017-Nov-19 08:40 UTC. Time now 2017-Nov-22 05:37 UTC.
Position N 59°25' E 027°44'.

Length 83 m; draft 3.8 m.

Type: Cargo ship. MMSI: 236029000.

Date/timePositionNaut miles runAvg speedWind from/ knotsBaromVisibWave heightAir tempDewpointWater temp
2017-Nov-19 08:40N 59°25' E 027°44'0 0.8
2017-Nov-19 08:27N 59°25' E 027°45'2 5.5
2017-Nov-19 08:00N 59°27' E 027°43'510.1
2017-Nov-19 07:30N 59°31' E 027°35'510.5
2017-Nov-19 06:59N 59°33' E 027°25'1010.4
2017-Nov-19 06:00N 59°37' E 027°07'811.5
2017-Nov-19 05:17N 59°41' E 026°52'3 9.7
2017-Nov-19 04:59N 59°42' E 026°47'710.5
2017-Nov-19 04:19N 59°44' E 026°33'3 9.3
2017-Nov-19 04:00N 59°45' E 026°28'510.2
2017-Nov-19 03:30N 59°45' E 026°18'2910.5
2017-Nov-19 00:46N 59°47' E 025°21'510.3
2017-Nov-19 00:19N 59°48' E 025°11'310.5
2017-Nov-19 00:00N 59°48' E 025°05'510.7
2017-Nov-18 23:31N 59°47' E 024°55'510.4
2017-Nov-18 23:00N 59°46' E 024°45'510.2
2017-Nov-18 22:30N 59°45' E 024°35'510.1
2017-Nov-18 22:00N 59°43' E 024°25'510.2
2017-Nov-18 21:30N 59°41' E 024°16'510.7
2017-Nov-18 21:00N 59°36' E 024°11'7 0.3
2017-Nov-18 00:30N 59°33' E 023°60'13 7.4
2017-Nov-17 22:40N 59°46' E 024°03'1 7.7
2017-Nov-17 22:29N 59°47' E 024°03'5 8.0
2017-Nov-17 21:51N 59°52' E 024°09'5 8.3
2017-Nov-17 21:17N 59°56' E 024°14'9 8.9
2017-Nov-17 20:15N 60°04' E 024°22'1 1.0
2017-Nov-17 19:04N 60°05' E 024°23'0 0.0
2017-Nov-17 18:59N 60°05' E 024°23'0 0.0
2017-Nov-16 23:22N 60°05' E 024°23'0 0.0
2017-Nov-16 22:59N 60°05' E 024°23'0 0.0
2017-Nov-16 21:23N 60°05' E 024°23'0 0.0
2017-Nov-16 21:00N 60°05' E 024°23'0 0.0
2017-Nov-16 20:27N 60°05' E 024°23'0 0.0
2017-Nov-16 20:00N 60°05' E 024°23'0 0.0
2017-Nov-16 19:30N 60°05' E 024°23'0 0.0
2017-Nov-16 19:00N 60°05' E 024°23'0 0.0
2017-Nov-16 18:30N 60°05' E 024°23'0 0.0
2017-Nov-16 17:54N 60°05' E 024°23'0 0.3
2017-Nov-16 17:11N 60°05' E 024°22'3 5.9
2017-Nov-16 16:44N 60°02' E 024°20'310.7
2017-Nov-16 16:25N 59°59' E 024°17'510.9
2017-Nov-16 15:55N 59°54' E 024°12'3 4.2
2017-Nov-16 15:15N 59°52' E 024°09'2 8.2
2017-Nov-16 14:57N 59°50' E 024°06'4 8.1
2017-Nov-16 14:27N 59°49' E 023°58'4 8.8
2017-Nov-16 14:00N 59°47' E 023°52'510.2
2017-Nov-16 13:30N 59°45' E 023°43'510.3
2017-Nov-16 13:00N 59°43' E 023°33'611.2
2017-Nov-16 12:30N 59°42' E 023°22'611.3
2017-Nov-16 12:00N 59°42' E 023°11'510.1
2017-Nov-16 11:30N 59°45' E 023°03'25 8.8
2017-Nov-16 08:44N 59°54' E 022°18'311.1
2017-Nov-16 08:30N 59°57' E 022°19'5 0.2
2017-Nov-15 05:17N 60°02' E 022°15'7 8.5
2017-Nov-15 04:30N 59°55' E 022°19'5 9.5
2017-Nov-15 04:00N 59°53' E 022°10'510.2
2017-Nov-15 03:30N 59°53' E 022°00'510.2
2017-Nov-15 03:00N 59°52' E 021°50'510.2
2017-Nov-15 02:30N 59°52' E 021°40'510.2
2017-Nov-15 02:00N 59°51' E 021°30'510.0
2017-Nov-15 01:30N 59°49' E 021°21'5 9.3
2017-Nov-15 01:01N 59°44' E 021°20'4 8.8
2017-Nov-15 00:30N 59°40' E 021°19'4 8.6
2017-Nov-15 00:00N 59°36' E 021°15'4 8.5
2017-Nov-14 23:30N 59°33' E 021°10'4 8.4
2017-Nov-14 23:00N 59°29' E 021°06'411 9.0
2017-Nov-13 01:14N 54°35' E 012°19'1310.3
2017-Nov-13 00:01N 54°24' E 012°09'0 8.4
2017-Nov-12 23:59N 54°24' E 012°09'510.5
2017-Nov-12 23:30N 54°24' E 011°60'910.6
2017-Nov-12 22:38N 54°25' E 011°44'210.7
2017-Nov-12 22:27N 54°25' E 011°41'511.3
2017-Nov-12 22:00N 54°28' E 011°33'611.3
2017-Nov-12 21:31N 54°30' E 011°25'510.9
2017-Nov-12 21:00N 54°33' E 011°16'510.6
2017-Nov-12 20:31N 54°35' E 011°08'510.7
2017-Nov-12 20:01N 54°35' E 010°59'510.4
2017-Nov-12 19:30N 54°34' E 010°50'510.4
2017-Nov-12 19:00N 54°34' E 010°41'510.4
2017-Nov-12 18:31N 54°33' E 010°32'29 6.4
2017-Nov-12 14:03N 54°22' E 009°47'0 8.6
2017-Nov-12 14:01N 54°21' E 009°47'4 8.3
2017-Nov-12 13:31N 54°18' E 009°42'4 8.0
2017-Nov-12 13:01N 54°15' E 009°37'4 8.0
2017-Nov-12 12:30N 54°12' E 009°33'4 8.5
2017-Nov-12 12:00N 54°10' E 009°27'3 6.1
2017-Nov-12 11:31N 54°09' E 009°22'4 6.1
2017-Nov-12 10:56N 54°06' E 009°20'4 8.7
2017-Nov-12 10:30N 54°02' E 009°18'4 8.3
2017-Nov-12 10:00N 53°58' E 009°16'4 8.5
2017-Nov-12 09:30N 53°55' E 009°11'2 4.1
2017-Nov-12 09:00N 53°54' E 009°09'0 1.0
2017-Nov-12 08:30N 53°53' E 009°08'3 5.8
2017-Nov-12 08:00N 53°52' E 009°03'510.3
2017-Nov-12 07:30N 53°51' E 008°55'510.9
2017-Nov-12 07:00N 53°51' E 008°46'510.6
2017-Nov-12 06:30N 53°55' E 008°41'510.4
2017-Nov-12 06:00N 53°58' E 008°33'510.4
2017-Nov-12 05:30N 53°59' E 008°25'510.4
2017-Nov-12 05:00N 53°59' E 008°16'510.3
2017-Nov-12 04:31N 53°59' E 008°07'510.3
2017-Nov-12 04:00N 53°58' E 007°59'510.7
2017-Nov-12 03:30N 53°57' E 007°50'138 8.8
2017-Nov-11 11:46N 52°58' E 004°20'2 8.6
2017-Nov-11 11:29N 52°56' E 004°19'4 8.8
2017-Nov-11 11:00N 52°52' E 004°16'5 9.1
2017-Nov-11 10:31N 52°48' E 004°12'510.1
2017-Nov-11 10:00N 52°44' E 004°06'510.1
2017-Nov-11 09:30N 52°41' E 004°00'510.4
2017-Nov-11 09:00N 52°37' E 003°54'63 9.5
2017-Nov-11 02:21N 51°51' E 002°45'4 7.6
2017-Nov-11 01:51N 51°48' E 002°41'3 7.8
2017-Nov-11 01:27N 51°45' E 002°37'3 7.7
2017-Nov-11 01:00N 51°43' E 002°34'4 7.6
2017-Nov-11 00:28N 51°40' E 002°29'4 7.6
2017-Nov-11 00:00N 51°37' E 002°26'4 7.8
2017-Nov-10 23:28N 51°34' E 002°21'4 8.0
2017-Nov-10 23:00N 51°31' E 002°18'4 8.3
2017-Nov-10 22:30N 51°28' E 002°13'4 8.4
2017-Nov-10 22:01N 51°24' E 002°11'4 7.8
2017-Nov-10 21:31N 51°20' E 002°09'5 9.0
2017-Nov-10 21:01N 51°16' E 002°06'4 9.0
2017-Nov-10 20:31N 51°13' E 002°01'5 9.5
2017-Nov-10 20:01N 51°10' E 001°55'5 9.8
2017-Nov-10 19:31N 51°07' E 001°49'510.2
2017-Nov-10 19:00N 51°03' E 001°43'510.9
2017-Nov-10 18:30N 50°59' E 001°37'711.5
2017-Nov-10 17:55N 50°54' E 001°30'5710.4
2017-Nov-10 12:26N 50°23' E 000°15'511.9
2017-Nov-10 12:01N 50°22' E 000°07'811.5
2017-Nov-10 11:21N 50°20' W 000°04'611.1
2017-Nov-10 10:47N 50°19' W 000°14'59 8.7
2017-Nov-10 04:03N 50°25' W 001°45'2 9.2
2017-Nov-10 03:49N 50°25' W 001°49'3 9.6
2017-Nov-10 03:30N 50°25' W 001°54'510.2
2017-Nov-10 03:01N 50°26' W 002°01'2211.6
2017-Nov-10 01:10N 50°28' W 002°35'211.8
2017-Nov-10 01:00N 50°28' W 002°38'611.7
2017-Nov-10 00:31N 50°29' W 002°47'611.6
2017-Nov-10 00:01N 50°29' W 002°56'611.4
2017-Nov-09 23:31N 50°30' W 003°05'611.2
2017-Nov-09 23:00N 50°31' W 003°14'511.0
2017-Nov-09 22:31N 50°31' W 003°22'5 9.0
2017-Nov-09 22:01N 50°32' W 003°29'1 1.6
2017-Nov-09 21:30N 50°33' W 003°30'0 0.0
2017-Nov-09 20:59N 50°33' W 003°30'0 0.0
2017-Nov-09 20:29N 50°33' W 003°30'0 0.0
2017-Nov-09 19:58N 50°33' W 003°30'0 0.0
2017-Nov-09 19:28N 50°33' W 003°30'0 0.0
2017-Nov-09 18:58N 50°33' W 003°30'0 0.0
2017-Nov-09 18:28N 50°33' W 003°30'0 0.0
2017-Nov-09 17:58N 50°33' W 003°30'0 0.0
2017-Nov-09 17:30N 50°33' W 003°30'0 0.0
2017-Nov-09 17:00N 50°33' W 003°30'0 0.0
2017-Nov-09 16:30N 50°33' W 003°30'0 0.0
2017-Nov-09 16:00N 50°33' W 003°30'0 0.0
2017-Nov-09 15:30N 50°33' W 003°30'0 0.0
2017-Nov-09 14:59N 50°33' W 003°30'0 0.0
2017-Nov-09 14:29N 50°33' W 003°30'0 0.0
2017-Nov-09 13:59N 50°33' W 003°30'0 0.0
2017-Nov-09 13:29N 50°33' W 003°30'0 0.0
2017-Nov-09 12:58N 50°33' W 003°30'0 0.0
2017-Nov-09 12:28N 50°33' W 003°30'0 0.0
2017-Nov-09 11:58N 50°33' W 003°30'0 0.0
2017-Nov-09 11:28N 50°33' W 003°30'0 0.0
2017-Nov-09 10:58N 50°33' W 003°30'0 0.0
2017-Nov-09 10:30N 50°33' W 003°30'0 0.0
2017-Nov-09 10:00N 50°33' W 003°30'0 0.0
2017-Nov-09 09:30N 50°33' W 003°30'0 0.0
2017-Nov-09 09:00N 50°33' W 003°30'  
Track history (hours):
 
Tides and Currents Weather Stations Pressure Air Temp Water Temp Dewpoint Dewpoint Depression Visibility Wind Speed Wind Dir Waves Ship Positions

Barbarossa

Last reported at 2017-Nov-19 08:40 UTC. Time now 2017-Nov-22 05:37 UTC.
Position N 59°25' E 027°44'.

Length 83 m; draft 3.8 m.

Type: Cargo ship. MMSI: 236029000.

Date/timePositionNaut miles runAvg speedWind from/ knotsBaromVisibWave heightAir tempDewpointWater temp
2017-Nov-19 08:40N 59°25' E 027°44'0 0.8
2017-Nov-19 08:27N 59°25' E 027°45'2 5.5
2017-Nov-19 08:00N 59°27' E 027°43'510.1
2017-Nov-19 07:30N 59°31' E 027°35'510.5
2017-Nov-19 06:59N 59°33' E 027°25'1010.4
2017-Nov-19 06:00N 59°37' E 027°07'811.5
2017-Nov-19 05:17N 59°41' E 026°52'3 9.7
2017-Nov-19 04:59N 59°42' E 026°47'710.5
2017-Nov-19 04:19N 59°44' E 026°33'3 9.3
2017-Nov-19 04:00N 59°45' E 026°28'510.2
2017-Nov-19 03:30N 59°45' E 026°18'2910.5
2017-Nov-19 00:46N 59°47' E 025°21'510.3
2017-Nov-19 00:19N 59°48' E 025°11'310.5
2017-Nov-19 00:00N 59°48' E 025°05'510.7
2017-Nov-18 23:31N 59°47' E 024°55'510.4
2017-Nov-18 23:00N 59°46' E 024°45'510.2
2017-Nov-18 22:30N 59°45' E 024°35'510.1
2017-Nov-18 22:00N 59°43' E 024°25'510.2
2017-Nov-18 21:30N 59°41' E 024°16'510.7
2017-Nov-18 21:00N 59°36' E 024°11'7 0.3
2017-Nov-18 00:30N 59°33' E 023°60'13 7.4
2017-Nov-17 22:40N 59°46' E 024°03'1 7.7
2017-Nov-17 22:29N 59°47' E 024°03'5 8.0
2017-Nov-17 21:51N 59°52' E 024°09'5 8.3
2017-Nov-17 21:17N 59°56' E 024°14'9 8.9
2017-Nov-17 20:15N 60°04' E 024°22'1 1.0
2017-Nov-17 19:04N 60°05' E 024°23'0 0.0
2017-Nov-17 18:59N 60°05' E 024°23'0 0.0
2017-Nov-16 23:22N 60°05' E 024°23'0 0.0
2017-Nov-16 22:59N 60°05' E 024°23'0 0.0
2017-Nov-16 21:23N 60°05' E 024°23'0 0.0
2017-Nov-16 21:00N 60°05' E 024°23'0 0.0
2017-Nov-16 20:27N 60°05' E 024°23'0 0.0
2017-Nov-16 20:00N 60°05' E 024°23'0 0.0
2017-Nov-16 19:30N 60°05' E 024°23'0 0.0
2017-Nov-16 19:00N 60°05' E 024°23'0 0.0
2017-Nov-16 18:30N 60°05' E 024°23'0 0.0
2017-Nov-16 17:54N 60°05' E 024°23'0 0.3
2017-Nov-16 17:11N 60°05' E 024°22'3 5.9
2017-Nov-16 16:44N 60°02' E 024°20'310.7
2017-Nov-16 16:25N 59°59' E 024°17'510.9
2017-Nov-16 15:55N 59°54' E 024°12'3 4.2
2017-Nov-16 15:15N 59°52' E 024°09'2 8.2
2017-Nov-16 14:57N 59°50' E 024°06'4 8.1
2017-Nov-16 14:27N 59°49' E 023°58'4 8.8
2017-Nov-16 14:00N 59°47' E 023°52'510.2
2017-Nov-16 13:30N 59°45' E 023°43'510.3
2017-Nov-16 13:00N 59°43' E 023°33'611.2
2017-Nov-16 12:30N 59°42' E 023°22'611.3
2017-Nov-16 12:00N 59°42' E 023°11'510.1
2017-Nov-16 11:30N 59°45' E 023°03'25 8.8
2017-Nov-16 08:44N 59°54' E 022°18'311.1
2017-Nov-16 08:30N 59°57' E 022°19'5 0.2
2017-Nov-15 05:17N 60°02' E 022°15'7 8.5
2017-Nov-15 04:30N 59°55' E 022°19'5 9.5
2017-Nov-15 04:00N 59°53' E 022°10'510.2
2017-Nov-15 03:30N 59°53' E 022°00'510.2
2017-Nov-15 03:00N 59°52' E 021°50'510.2
2017-Nov-15 02:30N 59°52' E 021°40'510.2
2017-Nov-15 02:00N 59°51' E 021°30'510.0
2017-Nov-15 01:30N 59°49' E 021°21'5 9.3
2017-Nov-15 01:01N 59°44' E 021°20'4 8.8
2017-Nov-15 00:30N 59°40' E 021°19'4 8.6
2017-Nov-15 00:00N 59°36' E 021°15'4 8.5
2017-Nov-14 23:30N 59°33' E 021°10'4 8.4
2017-Nov-14 23:00N 59°29' E 021°06'411 9.0
2017-Nov-13 01:14N 54°35' E 012°19'1310.3
2017-Nov-13 00:01N 54°24' E 012°09'0 8.4
2017-Nov-12 23:59N 54°24' E 012°09'510.5
2017-Nov-12 23:30N 54°24' E 011°60'910.6
2017-Nov-12 22:38N 54°25' E 011°44'210.7
2017-Nov-12 22:27N 54°25' E 011°41'511.3
2017-Nov-12 22:00N 54°28' E 011°33'611.3
2017-Nov-12 21:31N 54°30' E 011°25'510.9
2017-Nov-12 21:00N 54°33' E 011°16'510.6
2017-Nov-12 20:31N 54°35' E 011°08'510.7
2017-Nov-12 20:01N 54°35' E 010°59'510.4
2017-Nov-12 19:30N 54°34' E 010°50'510.4
2017-Nov-12 19:00N 54°34' E 010°41'510.4
2017-Nov-12 18:31N 54°33' E 010°32'29 6.4
2017-Nov-12 14:03N 54°22' E 009°47'0 8.6
2017-Nov-12 14:01N 54°21' E 009°47'4 8.3
2017-Nov-12 13:31N 54°18' E 009°42'4 8.0
2017-Nov-12 13:01N 54°15' E 009°37'4 8.0
2017-Nov-12 12:30N 54°12' E 009°33'4 8.5
2017-Nov-12 12:00N 54°10' E 009°27'3 6.1
2017-Nov-12 11:31N 54°09' E 009°22'4 6.1
2017-Nov-12 10:56N 54°06' E 009°20'4 8.7
2017-Nov-12 10:30N 54°02' E 009°18'4 8.3
2017-Nov-12 10:00N 53°58' E 009°16'4 8.5
2017-Nov-12 09:30N 53°55' E 009°11'2 4.1
2017-Nov-12 09:00N 53°54' E 009°09'0 1.0
2017-Nov-12 08:30N 53°53' E 009°08'3 5.8
2017-Nov-12 08:00N 53°52' E 009°03'510.3
2017-Nov-12 07:30N 53°51' E 008°55'510.9
2017-Nov-12 07:00N 53°51' E 008°46'510.6
2017-Nov-12 06:30N 53°55' E 008°41'510.4
2017-Nov-12 06:00N 53°58' E 008°33'510.4
2017-Nov-12 05:30N 53°59' E 008°25'510.4
2017-Nov-12 05:00N 53°59' E 008°16'510.3
2017-Nov-12 04:31N 53°59' E 008°07'510.3
2017-Nov-12 04:00N 53°58' E 007°59'510.7
2017-Nov-12 03:30N 53°57' E 007°50'138 8.8
2017-Nov-11 11:46N 52°58' E 004°20'2 8.6
2017-Nov-11 11:29N 52°56' E 004°19'4 8.8
2017-Nov-11 11:00N 52°52' E 004°16'5 9.1
2017-Nov-11 10:31N 52°48' E 004°12'510.1
2017-Nov-11 10:00N 52°44' E 004°06'510.1
2017-Nov-11 09:30N 52°41' E 004°00'510.4
2017-Nov-11 09:00N 52°37' E 003°54'63 9.5
2017-Nov-11 02:21N 51°51' E 002°45'4 7.6
2017-Nov-11 01:51N 51°48' E 002°41'3 7.8
2017-Nov-11 01:27N 51°45' E 002°37'3 7.7
2017-Nov-11 01:00N 51°43' E 002°34'4 7.6
2017-Nov-11 00:28N 51°40' E 002°29'4 7.6
2017-Nov-11 00:00N 51°37' E 002°26'4 7.8
2017-Nov-10 23:28N 51°34' E 002°21'4 8.0
2017-Nov-10 23:00N 51°31' E 002°18'4 8.3
2017-Nov-10 22:30N 51°28' E 002°13'4 8.4
2017-Nov-10 22:01N 51°24' E 002°11'4 7.8
2017-Nov-10 21:31N 51°20' E 002°09'5 9.0
2017-Nov-10 21:01N 51°16' E 002°06'4 9.0
2017-Nov-10 20:31N 51°13' E 002°01'5 9.5
2017-Nov-10 20:01N 51°10' E 001°55'5 9.8
2017-Nov-10 19:31N 51°07' E 001°49'510.2
2017-Nov-10 19:00N 51°03' E 001°43'510.9
2017-Nov-10 18:30N 50°59' E 001°37'711.5
2017-Nov-10 17:55N 50°54' E 001°30'5710.4
2017-Nov-10 12:26N 50°23' E 000°15'511.9
2017-Nov-10 12:01N 50°22' E 000°07'811.5
2017-Nov-10 11:21N 50°20' W 000°04'611.1
2017-Nov-10 10:47N 50°19' W 000°14'59 8.7
2017-Nov-10 04:03N 50°25' W 001°45'2 9.2
2017-Nov-10 03:49N 50°25' W 001°49'3 9.6
2017-Nov-10 03:30N 50°25' W 001°54'510.2
2017-Nov-10 03:01N 50°26' W 002°01'2211.6
2017-Nov-10 01:10N 50°28' W 002°35'211.8
2017-Nov-10 01:00N 50°28' W 002°38'611.7
2017-Nov-10 00:31N 50°29' W 002°47'611.6
2017-Nov-10 00:01N 50°29' W 002°56'611.4
2017-Nov-09 23:31N 50°30' W 003°05'611.2
2017-Nov-09 23:00N 50°31' W 003°14'511.0
2017-Nov-09 22:31N 50°31' W 003°22'5 9.0
2017-Nov-09 22:01N 50°32' W 003°29'1 1.6
2017-Nov-09 21:30N 50°33' W 003°30'0 0.0
2017-Nov-09 20:59N 50°33' W 003°30'0 0.0
2017-Nov-09 20:29N 50°33' W 003°30'0 0.0
2017-Nov-09 19:58N 50°33' W 003°30'0 0.0
2017-Nov-09 19:28N 50°33' W 003°30'0 0.0
2017-Nov-09 18:58N 50°33' W 003°30'0 0.0
2017-Nov-09 18:28N 50°33' W 003°30'0 0.0
2017-Nov-09 17:58N 50°33' W 003°30'0 0.0
2017-Nov-09 17:30N 50°33' W 003°30'0 0.0
2017-Nov-09 17:00N 50°33' W 003°30'0 0.0
2017-Nov-09 16:30N 50°33' W 003°30'0 0.0
2017-Nov-09 16:00N 50°33' W 003°30'0 0.0
2017-Nov-09 15:30N 50°33' W 003°30'0 0.0
2017-Nov-09 14:59N 50°33' W 003°30'0 0.0
2017-Nov-09 14:29N 50°33' W 003°30'0 0.0
2017-Nov-09 13:59N 50°33' W 003°30'0 0.0
2017-Nov-09 13:29N 50°33' W 003°30'0 0.0
2017-Nov-09 12:58N 50°33' W 003°30'0 0.0
2017-Nov-09 12:28N 50°33' W 003°30'0 0.0
2017-Nov-09 11:58N 50°33' W 003°30'0 0.0
2017-Nov-09 11:28N 50°33' W 003°30'0 0.0
2017-Nov-09 10:58N 50°33' W 003°30'0 0.0
2017-Nov-09 10:30N 50°33' W 003°30'0 0.0
2017-Nov-09 10:00N 50°33' W 003°30'0 0.0
2017-Nov-09 09:30N 50°33' W 003°30'0 0.0
2017-Nov-09 09:00N 50°33' W 003°30'  

Dump ship's entire track history